Aviation Digital Data Service (ADDS)

Output produced by METARs form (0345 UTC 20 November 2017)
found at http://aviationweather.gov/adds/metars/
 
KLBX 200253Z AUTO 00000KT 10SM CLR 09/04 A3025 RMK AO2 SLP241 T00940044 53010